sensor_id;sensor_type;location;lat;lon;timestamp;pressure;altitude;pressure_sealevel;temperature;humidity
23619;BME280;18207;32.078;34.818;2024-03-02T00:00:10;100523.56;;;25.80;21.45
23619;BME280;18207;32.078;34.818;2024-03-02T00:02:43;100518.34;;;25.79;21.14
23619;BME280;18207;32.078;34.818;2024-03-02T00:05:20;100520.31;;;25.78;21.67
23619;BME280;18207;32.078;34.818;2024-03-02T00:07:57;100520.72;;;25.77;21.54
23619;BME280;18207;32.078;34.818;2024-03-02T00:10:36;100521.41;;;25.74;21.40
23619;BME280;18207;32.078;34.818;2024-03-02T00:13:09;100517.81;;;25.73;21.58
23619;BME280;18207;32.078;34.818;2024-03-02T00:15:46;100517.81;;;25.73;21.72
23619;BME280;18207;32.078;34.818;2024-03-02T00:18:24;100506.91;;;25.72;21.38
23619;BME280;18207;32.078;34.818;2024-03-02T00:20:55;100511.72;;;25.71;21.39
23619;BME280;18207;32.078;34.818;2024-03-02T00:23:30;100516.91;;;25.69;21.83
23619;BME280;18207;32.078;34.818;2024-03-02T00:26:00;100511.66;;;25.68;21.83
23619;BME280;18207;32.078;34.818;2024-03-02T00:28:33;100509.66;;;25.68;21.37
23619;BME280;18207;32.078;34.818;2024-03-02T00:31:05;100500.75;;;25.66;21.65
23619;BME280;18207;32.078;34.818;2024-03-02T00:33:39;100499.13;;;25.65;21.34
23619;BME280;18207;32.078;34.818;2024-03-02T00:36:12;100499.13;;;25.65;21.58
23619;BME280;18207;32.078;34.818;2024-03-02T00:38:54;100509.59;;;25.65;21.61
23619;BME280;18207;32.078;34.818;2024-03-02T00:41:27;100508.34;;;25.62;21.58
23619;BME280;18207;32.078;34.818;2024-03-02T00:44:01;100508.34;;;25.62;21.31
23619;BME280;18207;32.078;34.818;2024-03-02T00:46:35;100510.72;;;25.60;21.67
23619;BME280;18207;32.078;34.818;2024-03-02T00:49:12;100508.28;;;25.59;21.96
23619;BME280;18207;32.078;34.818;2024-03-02T00:51:46;100508.22;;;25.55;21.55
23619;BME280;18207;32.078;34.818;2024-03-02T00:54:20;100521.03;;;25.53;21.81
23619;BME280;18207;32.078;34.818;2024-03-02T00:56:53;100515.72;;;25.48;21.67
23619;BME280;18207;32.078;34.818;2024-03-02T00:59:24;100509.66;;;25.46;21.79
23619;BME280;18207;32.078;34.818;2024-03-02T01:01:57;100503.53;;;25.40;21.81
23619;BME280;18207;32.078;34.818;2024-03-02T01:04:27;100504.66;;;25.36;21.62
23619;BME280;18207;32.078;34.818;2024-03-02T01:06:57;100503.75;;;25.32;21.68
23619;BME280;18207;32.078;34.818;2024-03-02T01:09:31;100498.91;;;25.29;22.15
23619;BME280;18207;32.078;34.818;2024-03-02T01:12:01;100504.47;;;25.25;21.91
23619;BME280;18207;32.078;34.818;2024-03-02T01:14:32;100502.38;;;25.22;21.66
23619;BME280;18207;32.078;34.818;2024-03-02T01:17:01;100511.19;;;25.21;22.16
23619;BME280;18207;32.078;34.818;2024-03-02T01:19:32;100499.50;;;25.19;22.06
23619;BME280;18207;32.078;34.818;2024-03-02T01:22:02;100500.69;;;25.18;22.09
23619;BME280;18207;32.078;34.818;2024-03-02T01:24:34;100505.50;;;25.17;22.11
23619;BME280;18207;32.078;34.818;2024-03-02T01:27:04;100503.44;;;25.14;21.96
23619;BME280;18207;32.078;34.818;2024-03-02T01:29:34;100508.63;;;25.12;22.05
23619;BME280;18207;32.078;34.818;2024-03-02T01:32:04;100501.38;;;25.11;22.36
23619;BME280;18207;32.078;34.818;2024-03-02T01:34:37;100496.44;;;25.08;22.21
23619;BME280;18207;32.078;34.818;2024-03-02T01:37:07;100489.56;;;25.06;22.30
23619;BME280;18207;32.078;34.818;2024-03-02T01:39:43;100487.50;;;25.03;22.12
23619;BME280;18207;32.078;34.818;2024-03-02T01:42:13;100481.34;;;24.98;22.02
23619;BME280;18207;32.078;34.818;2024-03-02T01:44:43;100482.91;;;24.95;22.10
23619;BME280;18207;32.078;34.818;2024-03-02T01:47:13;100477.22;;;24.92;22.43
23619;BME280;18207;32.078;34.818;2024-03-02T01:49:43;100484.41;;;24.89;22.37
23619;BME280;18207;32.078;34.818;2024-03-02T01:52:13;100488.41;;;24.88;22.12
23619;BME280;18207;32.078;34.818;2024-03-02T01:54:45;100489.22;;;24.89;22.31
23619;BME280;18207;32.078;34.818;2024-03-02T01:57:14;100490.38;;;24.88;22.63
23619;BME280;18207;32.078;34.818;2024-03-02T01:59:45;100488.75;;;24.87;22.19
23619;BME280;18207;32.078;34.818;2024-03-02T02:02:15;100496.38;;;24.86;22.73
23619;BME280;18207;32.078;34.818;2024-03-02T02:04:45;100502.41;;;24.85;22.63
23619;BME280;18207;32.078;34.818;2024-03-02T02:07:15;100503.56;;;24.84;22.31
23619;BME280;18207;32.078;34.818;2024-03-02T02:09:46;100501.56;;;24.84;22.48
23619;BME280;18207;32.078;34.818;2024-03-02T02:12:16;100501.13;;;24.82;22.14
23619;BME280;18207;32.078;34.818;2024-03-02T02:14:50;100514.00;;;24.83;22.60
23619;BME280;18207;32.078;34.818;2024-03-02T02:17:20;100506.75;;;24.82;22.56
23619;BME280;18207;32.078;34.818;2024-03-02T02:19:50;100509.19;;;24.84;22.52
23619;BME280;18207;32.078;34.818;2024-03-02T02:22:21;100510.00;;;24.84;22.70
23619;BME280;18207;32.078;34.818;2024-03-02T02:24:50;100509.66;;;24.86;22.27
23619;BME280;18207;32.078;34.818;2024-03-02T02:27:35;100503.25;;;24.89;22.56
23619;BME280;18207;32.078;34.818;2024-03-02T02:30:18;100504.38;;;24.84;22.69
23619;BME280;18207;32.078;34.818;2024-03-02T02:32:48;100508.75;;;24.82;22.42
23619;BME280;18207;32.078;34.818;2024-03-02T02:35:18;100501.88;;;24.79;22.79
23619;BME280;18207;32.078;34.818;2024-03-02T02:37:50;100504.25;;;24.77;22.50
23619;BME280;18207;32.078;34.818;2024-03-02T02:40:21;100516.22;;;24.74;22.65
23619;BME280;18207;32.078;34.818;2024-03-02T02:42:51;100510.53;;;24.71;22.51
23619;BME280;18207;32.078;34.818;2024-03-02T02:45:21;100520.97;;;24.70;22.63
23619;BME280;18207;32.078;34.818;2024-03-02T02:50:36;100523.31;;;24.68;22.70
23619;BME280;18207;32.078;34.818;2024-03-02T02:53:07;100523.31;;;24.68;22.79
23619;BME280;18207;32.078;34.818;2024-03-02T02:55:52;100522.94;;;24.70;22.69
23619;BME280;18207;32.078;34.818;2024-03-02T02:58:22;100510.91;;;24.69;22.75
23619;BME280;18207;32.078;34.818;2024-03-02T03:00:52;100511.25;;;24.68;22.93
23619;BME280;18207;32.078;34.818;2024-03-02T03:03:24;100514.44;;;24.66;23.03
23619;BME280;18207;32.078;34.818;2024-03-02T03:05:54;100518.44;;;24.65;23.09
23619;BME280;18207;32.078;34.818;2024-03-02T03:08:25;100520.44;;;24.65;23.09
23619;BME280;18207;32.078;34.818;2024-03-02T03:10:55;100519.59;;;24.64;23.26
23619;BME280;18207;32.078;34.818;2024-03-02T03:13:25;100517.97;;;24.63;22.96
23619;BME280;18207;32.078;34.818;2024-03-02T03:15:56;100513.53;;;24.62;23.33
23619;BME280;18207;32.078;34.818;2024-03-02T03:18:26;100509.47;;;24.60;22.74
23619;BME280;18207;32.078;34.818;2024-03-02T03:20:56;100509.03;;;24.58;22.81
23619;BME280;18207;32.078;34.818;2024-03-02T03:23:28;100503.78;;;24.56;23.22
23619;BME280;18207;32.078;34.818;2024-03-02T03:26:07;100508.16;;;24.54;23.18
23619;BME280;18207;32.078;34.818;2024-03-02T03:28:37;100505.25;;;24.50;22.79
23619;BME280;18207;32.078;34.818;2024-03-02T03:31:06;100507.25;;;24.50;23.52
23619;BME280;18207;32.078;34.818;2024-03-02T03:33:36;100509.25;;;24.49;23.06
23619;BME280;18207;32.078;34.818;2024-03-02T03:36:06;100502.81;;;24.49;23.29
23619;BME280;18207;32.078;34.818;2024-03-02T03:38:37;100506.44;;;24.49;23.21
23619;BME280;18207;32.078;34.818;2024-03-02T03:41:07;100503.63;;;24.49;23.42
23619;BME280;18207;32.078;34.818;2024-03-02T03:43:37;100502.44;;;24.50;23.62
23619;BME280;18207;32.078;34.818;2024-03-02T03:46:06;100494.81;;;24.51;23.49
23619;BME280;18207;32.078;34.818;2024-03-02T03:48:36;100509.31;;;24.53;23.54
23619;BME280;18207;32.078;34.818;2024-03-02T03:51:06;100499.25;;;24.52;23.31
23619;BME280;18207;32.078;34.818;2024-03-02T03:53:37;100510.13;;;24.53;23.41
23619;BME280;18207;32.078;34.818;2024-03-02T03:56:07;100514.94;;;24.53;23.51
23619;BME280;18207;32.078;34.818;2024-03-02T03:58:37;100507.69;;;24.52;23.21
23619;BME280;18207;32.078;34.818;2024-03-02T04:01:07;100505.69;;;24.52;23.24
23619;BME280;18207;32.078;34.818;2024-03-02T04:03:45;100512.13;;;24.53;23.43
23619;BME280;18207;32.078;34.818;2024-03-02T04:06:15;100506.50;;;24.53;23.77
23619;BME280;18207;32.078;34.818;2024-03-02T04:08:49;100514.94;;;24.53;23.45
23619;BME280;18207;32.078;34.818;2024-03-02T04:11:19;100514.13;;;24.52;23.56
23619;BME280;18207;32.078;34.818;2024-03-02T04:13:49;100506.50;;;24.53;23.51
23619;BME280;18207;32.078;34.818;2024-03-02T04:16:21;100513.75;;;24.54;23.61
23619;BME280;18207;32.078;34.818;2024-03-02T04:18:51;100516.56;;;24.54;23.87
23619;BME280;18207;32.078;34.818;2024-03-02T04:21:20;100511.75;;;24.54;23.90
23619;BME280;18207;32.078;34.818;2024-03-02T04:23:52;100518.56;;;24.53;23.60
23619;BME280;18207;32.078;34.818;2024-03-02T04:26:25;100511.69;;;24.51;23.95
23619;BME280;18207;32.078;34.818;2024-03-02T04:28:55;100513.31;;;24.52;23.82
23619;BME280;18207;32.078;34.818;2024-03-02T04:31:25;100512.50;;;24.51;24.06
23619;BME280;18207;32.078;34.818;2024-03-02T04:33:54;100520.09;;;24.51;24.08
23619;BME280;18207;32.078;34.818;2024-03-02T04:36:24;100521.28;;;24.50;23.97
23619;BME280;18207;32.078;34.818;2024-03-02T04:38:55;100522.13;;;24.50;23.85
23619;BME280;18207;32.078;34.818;2024-03-02T04:41:25;100518.84;;;24.48;23.80
23619;BME280;18207;32.078;34.818;2024-03-02T04:43:54;100509.97;;;24.46;23.85
23619;BME280;18207;32.078;34.818;2024-03-02T04:46:24;100513.97;;;24.45;24.38
23619;BME280;18207;32.078;34.818;2024-03-02T04:48:54;100515.13;;;24.44;24.19
23619;BME280;18207;32.078;34.818;2024-03-02T04:51:25;100516.28;;;24.43;24.30
23619;BME280;18207;32.078;34.818;2024-03-02T04:53:56;100522.28;;;24.42;24.03
23619;BME280;18207;32.078;34.818;2024-03-02T04:56:26;100513.06;;;24.41;24.13
23619;BME280;18207;32.078;34.818;2024-03-02T04:59:18;100515.03;;;24.41;24.09
23619;BME280;18207;32.078;34.818;2024-03-02T05:01:48;100515.50;;;24.43;24.16
23619;BME280;18207;32.078;34.818;2024-03-02T05:04:18;100513.97;;;24.45;24.69
23619;BME280;18207;32.078;34.818;2024-03-02T05:06:48;100518.84;;;24.48;24.32
23619;BME280;18207;32.078;34.818;2024-03-02T05:09:28;100518.13;;;24.51;24.83
23619;BME280;18207;32.078;34.818;2024-03-02T05:11:57;100519.00;;;24.55;24.19
23619;BME280;18207;32.078;34.818;2024-03-02T05:14:57;100521.53;;;24.60;24.73
23619;BME280;18207;32.078;34.818;2024-03-02T05:17:27;100523.25;;;24.65;24.59
23619;BME280;18207;32.078;34.818;2024-03-02T05:19:57;100538.63;;;24.71;24.92
23619;BME280;18207;32.078;34.818;2024-03-02T05:22:27;100529.91;;;24.76;24.66
23619;BME280;18207;32.078;34.818;2024-03-02T05:24:58;100540.47;;;24.82;24.94
23619;BME280;18207;32.078;34.818;2024-03-02T05:27:29;100547.44;;;24.88;24.98
23619;BME280;18207;32.078;34.818;2024-03-02T05:29:59;100551.13;;;24.92;25.17
23619;BME280;18207;32.078;34.818;2024-03-02T05:32:29;100553.28;;;24.99;24.79
23619;BME280;18207;32.078;34.818;2024-03-02T05:34:59;100562.63;;;25.03;25.25
23619;BME280;18207;32.078;34.818;2024-03-02T05:37:29;100566.75;;;25.08;25.01
23619;BME280;18207;32.078;34.818;2024-03-02T05:40:00;100565.66;;;25.13;25.36
23619;BME280;18207;32.078;34.818;2024-03-02T05:42:30;100569.00;;;25.18;25.15
23619;BME280;18207;32.078;34.818;2024-03-02T05:45:00;100565.50;;;25.25;25.50
23619;BME280;18207;32.078;34.818;2024-03-02T05:47:30;100560.41;;;25.30;25.21
23619;BME280;18207;32.078;34.818;2024-03-02T05:50:01;100568.56;;;25.35;25.23
23619;BME280;18207;32.078;34.818;2024-03-02T05:52:43;100571.84;;;25.41;25.12
23619;BME280;18207;32.078;34.818;2024-03-02T05:55:15;100564.75;;;25.47;24.90
23619;BME280;18207;32.078;34.818;2024-03-02T05:57:44;100571.69;;;25.53;24.87
23619;BME280;18207;32.078;34.818;2024-03-02T06:00:31;100580.28;;;25.60;24.96
23619;BME280;18207;32.078;34.818;2024-03-02T06:03:01;100579.59;;;25.66;25.07
23619;BME280;18207;32.078;34.818;2024-03-02T06:05:31;100576.91;;;25.73;25.02
23619;BME280;18207;32.078;34.818;2024-03-02T06:08:01;100576.25;;;25.80;24.93
23619;BME280;18207;32.078;34.818;2024-03-02T06:10:32;100580.84;;;25.88;24.68
23619;BME280;18207;32.078;34.818;2024-03-02T06:13:03;100578.13;;;25.95;25.08
23619;BME280;18207;32.078;34.818;2024-03-02T06:15:33;100578.63;;;26.00;24.97
23619;BME280;18207;32.078;34.818;2024-03-02T06:18:05;100579.56;;;26.07;25.14
23619;BME280;18207;32.078;34.818;2024-03-02T06:20:36;100576.03;;;26.14;25.14
23619;BME280;18207;32.078;34.818;2024-03-02T06:23:05;100586.25;;;26.22;25.21
23619;BME280;18207;32.078;34.818;2024-03-02T06:25:37;100585.56;;;26.28;25.20
23619;BME280;18207;32.078;34.818;2024-03-02T06:28:07;100591.31;;;26.35;25.20
23619;BME280;18207;32.078;34.818;2024-03-02T06:30:38;100585.38;;;26.40;24.96
23619;BME280;18207;32.078;34.818;2024-03-02T06:33:10;100597.56;;;26.48;25.30
23619;BME280;18207;32.078;34.818;2024-03-02T06:35:42;100598.06;;;26.53;25.02
23619;BME280;18207;32.078;34.818;2024-03-02T06:38:17;100604.63;;;26.61;25.27
23619;BME280;18207;32.078;34.818;2024-03-02T06:40:55;100596.66;;;26.66;25.42
23619;BME280;18207;32.078;34.818;2024-03-02T06:43:25;100597.16;;;26.72;25.28
23619;BME280;18207;32.078;34.818;2024-03-02T06:45:55;100594.81;;;26.77;25.18
23619;BME280;18207;32.078;34.818;2024-03-02T06:48:25;100601.72;;;26.83;25.23
23619;BME280;18207;32.078;34.818;2024-03-02T06:50:56;100603.00;;;26.89;25.56
23619;BME280;18207;32.078;34.818;2024-03-02T06:53:27;100600.31;;;26.96;25.08
23619;BME280;18207;32.078;34.818;2024-03-02T06:56:00;100601.63;;;27.02;25.32
23619;BME280;18207;32.078;34.818;2024-03-02T06:58:30;100608.13;;;27.06;25.17
23619;BME280;18207;32.078;34.818;2024-03-02T07:01:00;100609.84;;;27.14;25.04
23619;BME280;18207;32.078;34.818;2024-03-02T07:03:30;100623.25;;;27.20;25.02
23619;BME280;18207;32.078;34.818;2024-03-02T07:06:10;100616.06;;;27.26;25.57
23619;BME280;18207;32.078;34.818;2024-03-02T07:08:40;100627.81;;;27.32;25.24
23619;BME280;18207;32.078;34.818;2024-03-02T07:11:15;100627.09;;;27.38;24.94
23619;BME280;18207;32.078;34.818;2024-03-02T07:13:44;100633.22;;;27.44;25.01
23619;BME280;18207;32.078;34.818;2024-03-02T07:16:14;100632.50;;;27.50;24.77
23619;BME280;18207;32.078;34.818;2024-03-02T07:18:58;100621.28;;;27.57;24.73
23619;BME280;18207;32.078;34.818;2024-03-02T07:21:30;100633.88;;;27.63;25.09
23619;BME280;18207;32.078;34.818;2024-03-02T07:24:01;100625.09;;;27.72;24.77
23619;BME280;18207;32.078;34.818;2024-03-02T07:26:34;100630.03;;;27.78;24.97
23619;BME280;18207;32.078;34.818;2024-03-02T07:29:07;100626.06;;;27.86;25.04
23619;BME280;18207;32.078;34.818;2024-03-02T07:31:36;100626.97;;;27.93;24.53
23619;BME280;18207;32.078;34.818;2024-03-02T07:34:06;100628.66;;;28.01;24.71
23619;BME280;18207;32.078;34.818;2024-03-02T07:36:39;100628.31;;;28.10;24.82
23619;BME280;18207;32.078;34.818;2024-03-02T07:39:10;100630.03;;;28.18;24.80
23619;BME280;18207;32.078;34.818;2024-03-02T07:41:41;100632.53;;;28.26;24.60
23619;BME280;18207;32.078;34.818;2024-03-02T07:44:11;100633.41;;;28.34;24.65
23619;BME280;18207;32.078;34.818;2024-03-02T07:46:43;100638.31;;;28.40;24.72
23619;BME280;18207;32.078;34.818;2024-03-02T07:49:14;100630.31;;;28.49;24.68
23619;BME280;18207;32.078;34.818;2024-03-02T07:51:44;100640.88;;;28.56;24.50
23619;BME280;18207;32.078;34.818;2024-03-02T07:54:15;100642.56;;;28.63;24.78
23619;BME280;18207;32.078;34.818;2024-03-02T07:56:47;100655.53;;;28.71;24.60
23619;BME280;18207;32.078;34.818;2024-03-02T07:59:17;100649.53;;;28.76;24.61
23619;BME280;18207;32.078;34.818;2024-03-02T08:01:48;100666.16;;;28.85;24.80
23619;BME280;18207;32.078;34.818;2024-03-02T08:04:18;100657.31;;;28.90;24.75
23619;BME280;18207;32.078;34.818;2024-03-02T08:06:48;100665.44;;;28.95;24.68
23619;BME280;18207;32.078;34.818;2024-03-02T08:09:18;100666.69;;;29.01;24.92
23619;BME280;18207;32.078;34.818;2024-03-02T08:11:50;100666.31;;;29.06;24.97
23619;BME280;18207;32.078;34.818;2024-03-02T08:14:29;100668.78;;;29.11;24.83
23619;BME280;18207;32.078;34.818;2024-03-02T08:16:59;100675.25;;;29.15;25.21
23619;BME280;18207;32.078;34.818;2024-03-02T08:19:30;100680.94;;;29.18;25.50
23619;BME280;18207;32.078;34.818;2024-03-02T08:22:03;100681.78;;;29.22;25.83
23619;BME280;18207;32.078;34.818;2024-03-02T08:24:36;100681.00;;;29.25;25.82
23619;BME280;18207;32.078;34.818;2024-03-02T08:27:07;100685.47;;;29.30;26.03
23619;BME280;18207;32.078;34.818;2024-03-02T08:29:37;100680.22;;;29.32;26.18
23619;BME280;18207;32.078;34.818;2024-03-02T08:32:07;100677.84;;;29.37;26.02
23619;BME280;18207;32.078;34.818;2024-03-02T08:34:37;100674.22;;;29.40;26.32
23619;BME280;18207;32.078;34.818;2024-03-02T08:37:06;100685.56;;;29.44;26.62
23619;BME280;18207;32.078;34.818;2024-03-02T08:39:36;100690.44;;;29.47;26.54
23619;BME280;18207;32.078;34.818;2024-03-02T08:42:09;100696.94;;;29.51;26.84
23619;BME280;18207;32.078;34.818;2024-03-02T08:44:39;100682.38;;;29.52;26.69
23619;BME280;18207;32.078;34.818;2024-03-02T08:47:10;100685.22;;;29.55;26.90
23619;BME280;18207;32.078;34.818;2024-03-02T08:49:39;100693.31;;;29.57;26.92
23619;BME280;18207;32.078;34.818;2024-03-02T08:52:09;100688.06;;;29.59;27.08
23619;BME280;18207;32.078;34.818;2024-03-02T08:54:39;100679.97;;;29.61;27.65
23619;BME280;18207;32.078;34.818;2024-03-02T08:57:11;100690.91;;;29.62;27.69
23619;BME280;18207;32.078;34.818;2024-03-02T08:59:40;100690.53;;;29.64;27.85
23619;BME280;18207;32.078;34.818;2024-03-02T09:02:10;100695.78;;;29.65;27.84
23619;BME280;18207;32.078;34.818;2024-03-02T09:04:40;100688.91;;;29.66;27.72
23619;BME280;18207;32.078;34.818;2024-03-02T09:07:20;100686.06;;;29.66;27.88
23619;BME280;18207;32.078;34.818;2024-03-02T09:09:51;100688.91;;;29.66;28.12
23619;BME280;18207;32.078;34.818;2024-03-02T09:12:24;100686.06;;;29.66;28.10
23619;BME280;18207;32.078;34.818;2024-03-02T09:14:54;100690.13;;;29.65;28.24
23619;BME280;18207;32.078;34.818;2024-03-02T09:17:24;100688.50;;;29.64;28.37
23619;BME280;18207;32.078;34.818;2024-03-02T09:19:54;100693.34;;;29.64;28.56
23619;BME280;18207;32.078;34.818;2024-03-02T09:22:35;100697.41;;;29.63;28.56
23619;BME280;18207;32.078;34.818;2024-03-02T09:25:16;100695.75;;;29.58;28.75
23619;BME280;18207;32.078;34.818;2024-03-02T09:27:54;100696.13;;;29.57;28.92
23619;BME280;18207;32.078;34.818;2024-03-02T09:30:24;100692.09;;;29.54;29.05
23619;BME280;18207;32.078;34.818;2024-03-02T09:33:08;100691.66;;;29.52;29.19
23619;BME280;18207;32.078;34.818;2024-03-02T09:35:40;100693.69;;;29.52;29.26
23619;BME280;18207;32.078;34.818;2024-03-02T09:38:10;100693.69;;;29.52;29.24
23619;BME280;18207;32.078;34.818;2024-03-02T09:40:42;100684.41;;;29.52;29.86
23619;BME280;18207;32.078;34.818;2024-03-02T09:43:14;100674.28;;;29.51;29.62
23619;BME280;18207;32.078;34.818;2024-03-02T09:45:55;100684.78;;;29.50;29.92
23619;BME280;18207;32.078;34.818;2024-03-02T09:48:33;100677.91;;;29.48;29.93
23619;BME280;18207;32.078;34.818;2024-03-02T09:51:08;100681.94;;;29.47;29.94
23619;BME280;18207;32.078;34.818;2024-03-02T09:53:38;100676.69;;;29.45;30.26
23619;BME280;18207;32.078;34.818;2024-03-02T09:56:13;100682.72;;;29.44;30.28
23619;BME280;18207;32.078;34.818;2024-03-02T09:58:48;100680.72;;;29.41;30.34
23619;BME280;18207;32.078;34.818;2024-03-02T10:01:20;100668.50;;;29.37;30.56
23619;BME280;18207;32.078;34.818;2024-03-02T10:03:51;100666.88;;;29.32;30.25
23619;BME280;18207;32.078;34.818;2024-03-02T10:06:23;100667.66;;;29.29;30.82
23619;BME280;18207;32.078;34.818;2024-03-02T10:09:02;100660.78;;;29.27;30.89
23619;BME280;18207;32.078;34.818;2024-03-02T10:11:34;100659.56;;;29.24;30.93
23619;BME280;18207;32.078;34.818;2024-03-02T10:14:11;100668.84;;;29.21;31.06
23619;BME280;18207;32.078;34.818;2024-03-02T10:16:44;100671.66;;;29.18;31.17
23619;BME280;18207;32.078;34.818;2024-03-02T10:19:19;100663.94;;;29.15;31.19
23619;BME280;18207;32.078;34.818;2024-03-02T10:21:50;100655.44;;;29.11;31.28
23619;BME280;18207;32.078;34.818;2024-03-02T10:24:22;100663.91;;;29.08;31.71
23619;BME280;18207;32.078;34.818;2024-03-02T10:26:53;100663.88;;;29.04;31.39
23619;BME280;18207;32.078;34.818;2024-03-02T10:29:29;100663.88;;;29.01;31.60
23619;BME280;18207;32.078;34.818;2024-03-02T10:32:15;100669.09;;;28.99;31.61
23619;BME280;18207;32.078;34.818;2024-03-02T10:34:59;100677.94;;;28.94;31.62
23619;BME280;18207;32.078;34.818;2024-03-02T10:37:33;100672.28;;;28.90;31.94
23619;BME280;18207;32.078;34.818;2024-03-02T10:40:06;100679.53;;;28.88;32.02
23619;BME280;18207;32.078;34.818;2024-03-02T10:42:38;100677.50;;;28.85;32.01
23619;BME280;18207;32.078;34.818;2024-03-02T10:45:15;100680.28;;;28.81;32.16
23619;BME280;18207;32.078;34.818;2024-03-02T10:47:48;100671.75;;;28.78;31.93
23619;BME280;18207;32.078;34.818;2024-03-02T10:50:19;100663.25;;;28.74;32.14
23619;BME280;18207;32.078;34.818;2024-03-02T10:52:49;100664.44;;;28.70;32.31
23619;BME280;18207;32.078;34.818;2024-03-02T10:55:19;100673.25;;;28.65;32.47
23619;BME280;18207;32.078;34.818;2024-03-02T10:57:52;100661.13;;;28.61;32.43
23619;BME280;18207;32.078;34.818;2024-03-02T11:00:25;100674.41;;;28.57;32.50
23619;BME280;18207;32.078;34.818;2024-03-02T11:03:05;100675.59;;;28.53;32.56
23619;BME280;18207;32.078;34.818;2024-03-02T11:05:40;100677.59;;;28.49;32.69
23619;BME280;18207;32.078;34.818;2024-03-02T11:08:16;100684.38;;;28.44;32.79
23619;BME280;18207;32.078;34.818;2024-03-02T11:10:52;100681.53;;;28.41;32.85
23619;BME280;18207;32.078;34.818;2024-03-02T11:13:31;100684.75;;;28.36;32.69
23619;BME280;18207;32.078;34.818;2024-03-02T11:16:31;100678.63;;;28.30;32.93
23619;BME280;18207;32.078;34.818;2024-03-02T11:19:15;100693.09;;;28.25;33.13
23619;BME280;18207;32.078;34.818;2024-03-02T11:21:46;100698.34;;;28.23;33.18
23619;BME280;18207;32.078;34.818;2024-03-02T11:24:33;100692.59;;;28.20;33.03
23619;BME280;18207;32.078;34.818;2024-03-02T11:27:06;100678.44;;;28.16;33.31
23619;BME280;18207;32.078;34.818;2024-03-02T11:29:45;100676.41;;;28.13;33.42
23619;BME280;18207;32.078;34.818;2024-03-02T11:32:32;100675.16;;;28.11;33.28
23619;BME280;18207;32.078;34.818;2024-03-02T11:35:03;100673.13;;;28.08;33.45
23619;BME280;18207;32.078;34.818;2024-03-02T11:37:36;100660.97;;;28.04;33.60
23619;BME280;18207;32.078;34.818;2024-03-02T11:40:10;100660.53;;;28.02;33.56
23619;BME280;18207;32.078;34.818;2024-03-02T11:42:40;100664.94;;;27.99;33.83
23619;BME280;18207;32.078;34.818;2024-03-02T11:45:11;100661.69;;;27.97;33.79
23619;BME280;18207;32.078;34.818;2024-03-02T11:47:50;100656.44;;;27.96;33.80
23619;BME280;18207;32.078;34.818;2024-03-02T11:50:30;100657.22;;;27.93;33.96
23619;BME280;18207;32.078;34.818;2024-03-02T11:53:09;100666.47;;;27.90;34.05
23619;BME280;18207;32.078;34.818;2024-03-02T11:55:41;100674.88;;;27.86;34.07
23619;BME280;18207;32.078;34.818;2024-03-02T11:58:17;100675.69;;;27.83;33.86
23619;BME280;18207;32.078;34.818;2024-03-02T12:00:52;100682.09;;;27.80;34.17
23619;BME280;18207;32.078;34.818;2024-03-02T12:03:25;100686.88;;;27.76;34.25
23619;BME280;18207;32.078;34.818;2024-03-02T12:05:56;100692.50;;;27.73;34.08
23619;BME280;18207;32.078;34.818;2024-03-02T12:08:26;100691.25;;;27.71;34.29
23619;BME280;18207;32.078;34.818;2024-03-02T12:10:58;100702.13;;;27.69;34.49
23619;BME280;18207;32.078;34.818;2024-03-02T12:13:30;100713.81;;;27.67;34.58
23619;BME280;18207;32.078;34.818;2024-03-02T12:16:01;100706.53;;;27.66;34.57
23619;BME280;18207;32.078;34.818;2024-03-02T12:18:32;100704.47;;;27.63;34.93
23619;BME280;18207;32.078;34.818;2024-03-02T12:21:03;100704.00;;;27.61;34.74
23619;BME280;18207;32.078;34.818;2024-03-02T12:23:36;100697.94;;;27.59;34.69
23619;BME280;18207;32.078;34.818;2024-03-02T12:26:07;100694.69;;;27.57;34.88
23619;BME280;18207;32.078;34.818;2024-03-02T12:28:38;100697.91;;;27.56;34.95
23619;BME280;18207;32.078;34.818;2024-03-02T12:31:10;100677.72;;;27.54;34.97
23619;BME280;18207;32.078;34.818;2024-03-02T12:33:42;100679.72;;;27.53;34.99
23619;BME280;18207;32.078;34.818;2024-03-02T12:36:14;100678.06;;;27.52;35.15
23619;BME280;18207;32.078;34.818;2024-03-02T12:38:44;100681.28;;;27.51;35.01
23619;BME280;18207;32.078;34.818;2024-03-02T12:41:15;100686.94;;;27.51;35.26
23619;BME280;18207;32.078;34.818;2024-03-02T12:43:45;100684.13;;;27.51;35.27
23619;BME280;18207;32.078;34.818;2024-03-02T12:46:15;100691.78;;;27.50;35.30
23619;BME280;18207;32.078;34.818;2024-03-02T12:48:47;100682.50;;;27.50;35.57
23619;BME280;18207;32.078;34.818;2024-03-02T12:51:31;100682.09;;;27.51;35.48
23619;BME280;18207;32.078;34.818;2024-03-02T12:54:16;100687.69;;;27.48;35.59
23619;BME280;18207;32.078;34.818;2024-03-02T12:56:50;100700.63;;;27.49;35.77
23619;BME280;18207;32.078;34.818;2024-03-02T12:59:24;100694.19;;;27.48;35.65
23619;BME280;18207;32.078;34.818;2024-03-02T13:01:55;100694.19;;;27.48;35.82
23619;BME280;18207;32.078;34.818;2024-03-02T13:04:29;100704.63;;;27.48;35.99
23619;BME280;18207;32.078;34.818;2024-03-02T13:07:01;100702.66;;;27.48;35.99
23619;BME280;18207;32.078;34.818;2024-03-02T13:09:34;100707.84;;;27.46;35.81